Time;durP1;ratioP1;P1;durP2;ratioP2;P2;SDS_P1;SDS_P2;PMS_P1;PMS_P2;Temp;Humidity;BMP_temperature;BMP_pressure;BME280_temperature;BME280_humidity;BME280_pressure;Samples;Min_cycle;Max_cycle;Signal;HPM_P1;HPM_P2
2022/03/28 00:01:47;;;;;;;12.38;5.85;;;6.90;99.90;;;;;;5012444;28;20111;-44
2022/03/28 00:04:13;;;;;;;12.93;6.00;;;7.10;99.90;;;;;;5012733;28;20037;-50
2022/03/28 00:06:39;;;;;;;19.75;6.65;;;6.90;99.90;;;;;;4995053;28;20042;-45
2022/03/28 00:09:05;;;;;;;11.13;6.47;;;6.90;99.90;;;;;;5012383;28;20038;-47
2022/03/28 00:11:32;;;;;;;11.52;6.03;;;7.00;99.90;;;;;;4994657;28;20088;-47
2022/03/28 00:13:58;;;;;;;12.05;6.20;;;6.90;99.90;;;;;;5012500;28;20428;-46
2022/03/28 00:16:24;;;;;;;13.15;6.90;;;7.00;99.90;;;;;;5012337;28;20033;-45
2022/03/28 00:18:50;;;;;;;15.32;7.57;;;6.90;99.90;;;;;;5012413;28;20042;-47
2022/03/28 00:21:16;;;;;;;13.40;7.15;;;6.90;99.90;;;;;;5011886;28;20374;-44
2022/03/28 00:23:42;;;;;;;15.27;8.13;;;6.90;99.90;;;;;;5012546;28;20041;-47
2022/03/28 00:26:07;;;;;;;22.55;7.57;;;6.70;99.90;;;;;;5012289;28;20038;-48
2022/03/28 00:28:33;;;;;;;17.25;8.07;;;6.70;99.90;;;;;;5012366;28;20113;-46
2022/03/28 00:30:59;;;;;;;23.77;8.18;;;6.70;99.90;;;;;;5012301;28;20052;-45
2022/03/28 00:33:24;;;;;;;20.58;8.27;;;6.50;99.90;;;;;;5012222;28;20034;-50
2022/03/28 00:35:50;;;;;;;20.70;8.68;;;6.70;99.90;;;;;;5011473;28;20379;-46
2022/03/28 00:38:16;;;;;;;33.60;9.23;;;6.70;99.90;;;;;;4993821;28;20124;-49
2022/03/28 00:40:42;;;;;;;19.40;10.13;;;6.50;99.90;;;;;;4992630;28;20132;-50
2022/03/28 00:43:09;;;;;;;22.23;10.63;;;6.50;99.90;;;;;;5008294;28;20069;-49
2022/03/28 00:45:37;;;;;;;23.80;10.98;;;6.50;99.90;;;;;;5011777;28;20049;-46
2022/03/28 00:48:04;;;;;;;26.10;10.77;;;6.60;99.90;;;;;;5011862;28;20045;-47
2022/03/28 00:50:30;;;;;;;29.08;11.75;;;6.70;99.90;;;;;;5010387;28;20030;-49
2022/03/28 00:52:57;;;;;;;25.65;12.18;;;6.70;99.90;;;;;;5010855;28;20034;-47
2022/03/28 00:55:22;;;;;;;22.33;11.65;;;6.70;99.90;;;;;;5010857;28;20413;-45
2022/03/28 00:57:48;;;;;;;27.17;11.95;;;6.60;99.90;;;;;;5011839;28;20042;-47
2022/03/28 01:00:15;;;;;;;26.40;11.60;;;6.60;99.90;;;;;;5011681;28;20042;-49
2022/03/28 01:02:41;;;;;;;24.42;11.55;;;6.70;99.90;;;;;;4992126;28;20049;-47
2022/03/28 01:05:07;;;;;;;28.38;12.50;;;6.60;99.90;;;;;;5011562;28;20041;-44
2022/03/28 01:07:33;;;;;;;29.52;12.15;;;6.70;99.90;;;;;;5011801;28;20037;-49
2022/03/28 01:10:01;;;;;;;23.35;12.20;;;6.70;99.90;;;;;;4993914;28;20046;-47
2022/03/28 01:12:27;;;;;;;26.65;11.57;;;6.60;99.90;;;;;;5011669;28;20038;-45
2022/03/28 01:14:56;;;;;;;24.75;11.82;;;6.60;99.90;;;;;;5011815;28;20045;-46
2022/03/28 01:20:07;;;;;;;;;;;6.80;99.90;;;;;;5011299;28;20041;-47
2022/03/28 01:22:33;;;;;;;26.90;10.63;;;6.60;99.90;;;;;;5011170;28;19970;-45
2022/03/28 01:25:02;;;;;;;24.60;10.10;;;6.40;99.90;;;;;;5011346;28;20046;-45
2022/03/28 01:27:28;;;;;;;21.60;9.95;;;6.50;99.90;;;;;;5011487;28;20420;-46
2022/03/28 01:29:54;;;;;;;21.98;9.95;;;6.60;99.90;;;;;;5011255;28;20080;-47
2022/03/28 01:32:20;;;;;;;19.25;9.25;;;6.60;99.90;;;;;;5011172;28;20038;-48
2022/03/28 01:34:46;;;;;;;23.38;10.27;;;6.50;99.90;;;;;;5011161;28;20041;-45
2022/03/28 01:37:11;;;;;;;24.92;9.48;;;6.70;99.90;;;;;;5010867;28;20485;-48
2022/03/28 01:39:37;;;;;;;21.20;9.93;;;6.80;99.90;;;;;;5011156;28;20038;-46
2022/03/28 01:42:03;;;;;;;27.80;9.95;;;6.60;99.90;;;;;;5010889;28;20450;-46
2022/03/28 01:44:29;;;;;;;25.13;10.57;;;6.40;99.90;;;;;;5011090;28;20089;-46
2022/03/28 01:46:55;;;;;;;20.35;9.23;;;6.50;99.90;;;;;;5010824;28;20042;-46
2022/03/28 01:49:21;;;;;;;26.42;10.18;;;6.40;99.90;;;;;;5010847;28;20033;-50
2022/03/28 01:51:49;;;;;;;21.27;10.18;;;6.40;99.90;;;;;;5010974;28;20026;-47
2022/03/28 01:54:15;;;;;;;22.73;9.80;;;6.60;99.90;;;;;;5011025;28;20042;-48
2022/03/28 01:56:41;;;;;;;19.75;9.32;;;6.50;99.90;;;;;;5010704;28;20523;-47
2022/03/28 01:59:09;;;;;;;20.90;10.20;;;6.40;99.90;;;;;;5011152;28;20034;-46
2022/03/28 02:01:35;;;;;;;21.25;9.68;;;6.70;99.90;;;;;;5010688;28;20029;-47
2022/03/28 02:04:02;;;;;;;27.42;9.98;;;6.50;99.90;;;;;;5011022;28;20038;-47
2022/03/28 02:06:28;;;;;;;22.70;9.70;;;6.60;99.90;;;;;;5011025;28;20450;-46
2022/03/28 02:08:54;;;;;;;40.88;10.07;;;6.70;99.90;;;;;;5011022;28;20041;-47
2022/03/28 02:11:20;;;;;;;21.23;9.70;;;6.70;99.90;;;;;;5011152;28;20088;-47
2022/03/28 02:13:46;;;;;;;16.38;8.80;;;6.80;99.90;;;;;;5010692;28;20034;-50
2022/03/28 02:16:11;;;;;;;22.42;8.38;;;6.80;99.90;;;;;;5014484;28;20520;-48
2022/03/28 02:18:40;;;;;;;17.20;7.32;;;6.70;99.90;;;;;;5014654;28;20041;-47
2022/03/28 02:21:06;;;;;;;17.95;7.10;;;6.70;99.90;;;;;;5014208;28;20069;-47
2022/03/28 02:23:32;;;;;;;20.60;7.07;;;6.50;99.90;;;;;;4997005;28;20073;-45
2022/03/28 02:25:58;;;;;;;22.30;7.75;;;6.60;99.90;;;;;;5014511;28;20464;-47
2022/03/28 02:28:24;;;;;;;15.82;6.93;;;6.70;99.90;;;;;;5014541;28;20113;-47
2022/03/28 02:30:50;;;;;;;17.50;5.45;;;6.60;99.90;;;;;;4997095;28;20042;-46
2022/03/28 02:33:16;;;;;;;13.77;5.80;;;6.20;99.90;;;;;;5013046;28;20061;-46
2022/03/28 02:35:43;;;;;;;13.38;4.93;;;6.30;99.90;;;;;;5014512;28;20052;-49
2022/03/28 02:38:09;;;;;;;13.45;5.45;;;6.40;99.90;;;;;;5014208;28;20042;-49
2022/03/28 02:40:35;;;;;;;14.10;4.80;;;6.30;99.90;;;;;;5014342;28;20485;-48
2022/03/28 02:43:02;;;;;;;13.32;4.72;;;6.30;99.90;;;;;;5013905;28;20042;-48
2022/03/28 02:45:34;;;;;;;12.45;4.57;;;6.40;99.90;;;;;;5013915;28;20164;-45
2022/03/28 02:48:01;;;;;;;19.05;4.10;;;6.10;99.90;;;;;;5014416;28;20034;-46
2022/03/28 02:50:30;;;;;;;11.77;4.60;;;6.10;99.90;;;;;;5013374;28;20056;-48
2022/03/28 02:52:56;;;;;;;18.25;4.32;;;6.10;99.90;;;;;;5013779;28;20049;-47
2022/03/28 02:55:22;;;;;;;9.88;3.80;;;5.90;99.90;;;;;;4995985;28;20116;-46
2022/03/28 02:57:48;;;;;;;10.27;3.90;;;6.00;99.90;;;;;;5013825;28;20059;-49
2022/03/28 03:00:14;;;;;;;11.00;4.60;;;6.20;99.90;;;;;;5012584;28;20147;-48
2022/03/28 03:02:42;;;;;;;14.55;4.05;;;6.20;99.90;;;;;;5013944;28;20034;-49
2022/03/28 03:05:09;;;;;;;12.52;3.85;;;6.20;99.90;;;;;;5013649;28;20078;-50
2022/03/28 03:07:35;;;;;;;9.15;3.58;;;6.20;99.90;;;;;;5013499;28;20591;-48
2022/03/28 03:10:01;;;;;;;14.43;3.60;;;6.10;99.90;;;;;;5013644;28;20088;-46
2022/03/28 03:12:27;;;;;;;13.10;3.90;;;6.20;99.90;;;;;;5013544;28;20049;-45
2022/03/28 03:14:53;;;;;;;9.27;3.90;;;6.10;99.90;;;;;;5013245;28;20045;-45
2022/03/28 03:17:19;;;;;;;13.75;3.88;;;6.10;99.90;;;;;;5013536;28;20042;-47
2022/03/28 03:19:45;;;;;;;14.23;4.20;;;6.30;99.90;;;;;;5011746;28;20393;-49
2022/03/28 03:22:14;;;;;;;16.20;4.40;;;6.20;99.90;;;;;;5013613;28;20086;-50
2022/03/28 03:24:44;;;;;;;10.82;4.55;;;6.20;99.90;;;;;;5012993;28;20037;-47
2022/03/28 03:27:11;;;;;;;17.40;5.93;;;6.10;99.90;;;;;;4992399;28;20088;-50
2022/03/28 03:29:36;;;;;;;13.77;5.28;;;6.10;99.90;;;;;;4994802;28;20046;-47
2022/03/28 03:32:05;;;;;;;22.20;5.85;;;6.20;99.90;;;;;;5012912;28;20037;-46
2022/03/28 03:34:33;;;;;;;43.53;5.38;;;6.00;99.90;;;;;;5013288;28;20089;-47
2022/03/28 03:36:59;;;;;;;18.25;5.63;;;5.90;99.90;;;;;;5013062;28;20489;-47
2022/03/28 03:39:25;;;;;;;26.17;6.15;;;5.90;99.90;;;;;;5013035;28;20121;-46
2022/03/28 03:41:52;;;;;;;20.77;6.15;;;6.10;99.90;;;;;;5012948;28;20030;-47
2022/03/28 03:44:18;;;;;;;20.80;5.63;;;5.70;99.90;;;;;;4995452;28;20120;-47
2022/03/28 03:46:44;;;;;;;43.03;6.70;;;5.80;99.90;;;;;;5012739;28;20030;-45
2022/03/28 03:49:09;;;;;;;35.53;6.70;;;5.50;99.90;;;;;;5012804;28;20045;-49
2022/03/28 03:51:36;;;;;;;28.52;7.28;;;5.50;99.90;;;;;;4994934;28;20038;-46
2022/03/28 03:54:02;;;;;;;68.57;8.48;;;5.60;99.90;;;;;;5012915;28;20375;-46
2022/03/28 03:56:30;;;;;;;22.85;7.82;;;5.60;99.90;;;;;;5012305;28;20137;-48
2022/03/28 03:58:57;;;;;;;48.80;9.50;;;5.70;99.90;;;;;;5012778;28;20482;-50
2022/03/28 04:01:23;;;;;;;31.33;8.85;;;5.70;99.90;;;;;;5012564;28;20087;-45
2022/03/28 04:03:49;;;;;;;30.48;8.02;;;5.70;99.90;;;;;;5012761;28;20077;-46
2022/03/28 04:06:15;;;;;;;32.03;9.05;;;5.30;99.90;;;;;;5012300;28;20458;-46
2022/03/28 04:08:41;;;;;;;37.40;8.75;;;5.40;99.90;;;;;;5012406;28;20503;-48
2022/03/28 04:11:07;;;;;;;26.50;8.63;;;5.50;99.90;;;;;;4995106;28;20045;-47
2022/03/28 04:13:34;;;;;;;23.75;9.48;;;5.50;99.90;;;;;;5012558;28;20037;-50
2022/03/28 04:16:00;;;;;;;29.73;10.38;;;5.40;99.90;;;;;;5012149;28;20056;-46
2022/03/28 04:18:27;;;;;;;29.08;11.90;;;5.70;99.90;;;;;;5012430;28;20052;-47
2022/03/28 04:20:53;;;;;;;28.65;11.10;;;5.60;99.90;;;;;;5011870;28;20065;-46
2022/03/28 04:23:19;;;;;;;35.88;12.05;;;5.70;99.90;;;;;;5011854;28;20045;-47
2022/03/28 04:25:45;;;;;;;30.73;11.88;;;5.70;99.90;;;;;;5012226;28;20543;-45
2022/03/28 04:28:11;;;;;;;31.50;11.45;;;5.60;99.90;;;;;;5012249;28;20034;-48
2022/03/28 04:30:36;;;;;;;31.42;11.88;;;5.70;99.90;;;;;;5012300;28;20038;-47
2022/03/28 04:33:03;;;;;;;29.73;11.68;;;5.90;99.90;;;;;;5011989;28;20037;-48
2022/03/28 04:35:29;;;;;;;32.80;13.38;;;5.80;99.90;;;;;;5012383;28;20088;-51
2022/03/28 04:37:55;;;;;;;32.45;13.20;;;6.00;99.90;;;;;;5011111;28;20045;-47
2022/03/28 04:40:21;;;;;;;32.72;12.40;;;5.80;99.90;;;;;;5012254;28;20100;-48
2022/03/28 04:42:48;;;;;;;34.92;14.50;;;5.70;99.90;;;;;;5011917;28;20029;-48
2022/03/28 04:45:14;;;;;;;35.40;13.85;;;5.90;99.90;;;;;;5012089;28;20505;-47
2022/03/28 04:47:40;;;;;;;36.55;14.38;;;6.00;99.90;;;;;;5011918;28;20076;-44
2022/03/28 04:50:08;;;;;;;38.03;15.20;;;5.80;99.90;;;;;;5011204;28;20045;-46
2022/03/28 04:52:34;;;;;;;43.90;15.40;;;5.90;99.90;;;;;;5011321;28;20121;-47
2022/03/28 04:55:00;;;;;;;37.17;15.43;;;5.70;99.90;;;;;;5011801;28;20133;-46
2022/03/28 04:57:26;;;;;;;42.05;15.95;;;5.90;99.90;;;;;;5011801;28;20116;-45
2022/03/28 04:59:52;;;;;;;39.85;15.57;;;5.50;99.90;;;;;;5011631;28;20466;-50
2022/03/28 05:02:18;;;;;;;38.00;15.15;;;5.80;99.90;;;;;;5011593;28;20034;-47
2022/03/28 05:04:43;;;;;;;40.58;14.50;;;5.50;99.90;;;;;;5011636;28;20056;-48
2022/03/28 05:07:09;;;;;;;38.95;15.15;;;5.60;99.90;;;;;;5011043;28;20057;-50
2022/03/28 05:09:35;;;;;;;39.47;15.88;;;5.80;99.90;;;;;;4993803;28;20038;-49
2022/03/28 05:12:01;;;;;;;46.28;16.95;;;5.80;99.90;;;;;;5011615;28;20076;-48
2022/03/28 05:14:26;;;;;;;49.95;17.50;;;5.70;99.90;;;;;;5011120;28;20033;-44
2022/03/28 05:16:53;;;;;;;42.17;17.00;;;5.70;99.90;;;;;;4993781;28;20390;-45
2022/03/28 05:19:18;;;;;;;41.45;16.13;;;5.70;99.90;;;;;;5011200;28;20111;-47
2022/03/28 05:21:44;;;;;;;46.85;17.95;;;5.60;99.90;;;;;;4993115;28;20046;-47
2022/03/28 05:24:10;;;;;;;45.95;17.27;;;5.70;99.90;;;;;;5011531;28;20061;-46
2022/03/28 05:26:36;;;;;;;48.88;17.88;;;5.50;99.90;;;;;;5011114;28;20449;-46
2022/03/28 05:29:01;;;;;;;46.00;18.10;;;5.60;99.90;;;;;;4993632;28;20045;-48
2022/03/28 05:31:27;;;;;;;41.55;17.25;;;5.60;99.90;;;;;;5011175;28;20075;-46
2022/03/28 05:33:53;;;;;;;39.88;16.40;;;5.70;99.90;;;;;;5011216;28;20026;-47
2022/03/28 05:36:19;;;;;;;51.17;17.67;;;5.70;99.90;;;;;;5010528;28;20053;-46
2022/03/28 05:38:45;;;;;;;39.58;17.23;;;5.70;99.90;;;;;;5011368;28;20468;-48
2022/03/28 05:41:11;;;;;;;46.40;18.02;;;5.70;99.90;;;;;;5011320;28;20042;-46
2022/03/28 05:43:38;;;;;;;50.70;19.42;;;5.70;99.90;;;;;;5010992;28;20040;-49
2022/03/28 05:46:05;;;;;;;49.47;18.52;;;5.90;99.90;;;;;;5010889;28;20073;-46
2022/03/28 05:48:30;;;;;;;47.88;17.70;;;5.90;99.90;;;;;;5010926;28;20041;-47
2022/03/28 05:50:56;;;;;;;54.22;18.88;;;5.60;99.90;;;;;;5010034;28;20046;-47
2022/03/28 05:53:22;;;;;;;49.78;18.95;;;6.00;99.90;;;;;;5010758;28;20117;-48
2022/03/28 05:55:48;;;;;;;52.95;19.00;;;5.90;99.90;;;;;;5010726;28;20050;-46
2022/03/28 05:58:14;;;;;;;53.72;19.42;;;6.00;99.90;;;;;;5010795;28;20049;-46
2022/03/28 06:00:40;;;;;;;55.58;20.30;;;5.90;99.90;;;;;;5010961;28;20033;-47
2022/03/28 06:03:08;;;;;;;57.00;21.77;;;6.00;99.90;;;;;;5011027;28;20112;-48
2022/03/28 06:05:36;;;;;;;56.17;20.45;;;5.80;99.90;;;;;;4992833;28;20489;-47
2022/03/28 06:08:02;;;;;;;56.78;22.15;;;6.80;99.90;;;;;;4992809;28;20279;-48
2022/03/28 06:10:28;;;;;;;53.22;20.73;;;6.00;99.90;;;;;;5010950;28;20046;-45
2022/03/28 06:12:53;;;;;;;58.30;21.30;;;5.80;99.90;;;;;;5010847;28;20454;-48
2022/03/28 06:15:19;;;;;;;55.83;20.02;;;6.00;99.90;;;;;;5010704;28;20405;-47
2022/03/28 06:17:45;;;;;;;57.70;21.73;;;5.90;99.90;;;;;;5010356;28;20038;-47
2022/03/28 06:20:11;;;;;;;50.08;20.60;;;6.00;99.90;;;;;;5010107;28;20486;-49
2022/03/28 06:22:37;;;;;;;52.88;21.38;;;6.20;99.90;;;;;;5010644;28;20046;-49
2022/03/28 06:25:04;;;;;;;53.78;22.65;;;6.00;99.90;;;;;;5010486;28;20042;-47
2022/03/28 06:27:30;;;;;;;60.65;22.35;;;6.10;99.90;;;;;;5010685;28;20510;-44
2022/03/28 06:29:56;;;;;;;58.92;22.60;;;5.90;99.90;;;;;;5010511;28;20113;-50
2022/03/28 06:32:22;;;;;;;58.72;21.38;;;5.90;99.90;;;;;;5010315;28;20125;-46
2022/03/28 06:34:48;;;;;;;54.92;22.67;;;6.20;99.90;;;;;;5010395;28;20037;-47
2022/03/28 06:37:21;;;;;;;60.92;23.05;;;6.00;99.90;;;;;;5010189;28;20045;-49
2022/03/28 06:39:47;;;;;;;60.03;22.35;;;6.10;99.90;;;;;;5010510;28;20038;-48
2022/03/28 06:42:13;;;;;;;58.97;22.70;;;6.00;99.90;;;;;;5010649;28;20049;-48
2022/03/28 06:44:39;;;;;;;58.78;22.67;;;6.00;99.90;;;;;;5010286;28;20082;-47
2022/03/28 06:47:05;;;;;;;59.80;23.85;;;6.10;99.90;;;;;;5010201;28;20505;-50
2022/03/28 06:49:32;;;;;;;57.72;23.00;;;6.40;99.90;;;;;;5010293;28;20034;-46
2022/03/28 06:51:58;;;;;;;55.05;22.40;;;6.30;99.90;;;;;;5008782;28;20041;-49
2022/03/28 06:54:24;;;;;;;55.83;21.58;;;6.20;99.90;;;;;;5010354;28;20375;-44
2022/03/28 06:56:50;;;;;;;45.78;21.15;;;6.50;99.90;;;;;;4992406;28;20045;-45
2022/03/28 06:59:16;;;;;;;51.72;21.92;;;6.40;99.90;;;;;;5010682;28;20045;-45
2022/03/28 07:01:43;;;;;;;47.85;20.70;;;6.10;99.90;;;;;;5011303;28;20073;-46
2022/03/28 07:04:12;;;;;;;44.25;20.83;;;6.00;99.90;;;;;;5014042;28;20049;-46
2022/03/28 07:06:38;;;;;;;45.67;19.83;;;6.10;99.90;;;;;;5013288;28;20034;-46
2022/03/28 07:09:04;;;;;;;49.03;20.35;;;6.20;99.90;;;;;;5013675;28;20069;-46
2022/03/28 07:11:32;;;;;;;47.20;21.00;;;6.20;99.90;;;;;;5013906;28;20108;-46
2022/03/28 07:13:57;;;;;;;48.15;20.33;;;6.40;99.90;;;;;;5013502;28;20081;-45
2022/03/28 07:16:23;;;;;;;48.80;20.48;;;6.20;99.90;;;;;;5013625;28;20061;-46
2022/03/28 07:18:49;;;;;;;45.85;19.45;;;6.50;99.90;;;;;;5012042;28;20049;-45
2022/03/28 07:21:15;;;;;;;41.88;19.90;;;6.50;99.90;;;;;;5012931;28;20072;-44
2022/03/28 07:23:40;;;;;;;41.60;18.92;;;6.60;99.90;;;;;;5008782;28;20469;-50
2022/03/28 07:26:08;;;;;;;43.38;18.02;;;6.60;99.90;;;;;;5010921;28;20042;-50
2022/03/28 07:28:35;;;;;;;39.90;18.52;;;6.00;99.90;;;;;;5012219;28;20486;-51
2022/03/28 07:31:01;;;;;;;38.38;18.90;;;6.30;99.90;;;;;;4990624;28;20038;-46
2022/03/28 07:33:27;;;;;;;39.42;18.25;;;6.20;99.90;;;;;;5011852;28;20045;-46
2022/03/28 07:35:52;;;;;;;38.80;18.35;;;6.20;99.90;;;;;;5011046;28;20069;-49
2022/03/28 07:38:18;;;;;;;40.03;18.83;;;6.20;99.90;;;;;;5011841;28;20519;-46
2022/03/28 07:40:45;;;;;;;44.15;19.98;;;6.30;99.90;;;;;;5011870;28;20116;-46
2022/03/28 07:43:12;;;;;;;37.85;18.60;;;6.30;99.90;;;;;;5010072;28;20293;-46
2022/03/28 07:45:37;;;;;;;35.75;18.13;;;6.50;99.90;;;;;;5008865;28;20060;-48
2022/03/28 07:48:06;;;;;;;37.00;19.35;;;6.20;99.90;;;;;;5008762;28;20034;-46
2022/03/28 07:50:32;;;;;;;38.40;20.20;;;6.20;99.90;;;;;;5008740;28;20120;-46
2022/03/28 07:52:58;;;;;;;37.22;19.70;;;6.20;99.90;;;;;;5009211;28;20084;-46
2022/03/28 07:55:26;;;;;;;38.20;19.23;;;6.30;99.90;;;;;;5011546;28;20108;-47
2022/03/28 07:57:51;;;;;;;39.50;19.23;;;6.10;99.90;;;;;;4994039;28;20038;-47
2022/03/28 08:00:17;;;;;;;37.72;19.00;;;6.50;99.90;;;;;;5010042;28;20046;-47
2022/03/28 08:02:43;;;;;;;40.15;21.17;;;6.30;99.90;;;;;;5010900;28;20120;-49
2022/03/28 08:05:10;;;;;;;35.70;18.70;;;6.60;99.90;;;;;;4993448;28;20053;-49
2022/03/28 08:07:36;;;;;;;32.28;19.27;;;6.50;99.90;;;;;;5011485;28;20054;-48
2022/03/28 08:10:06;;;;;;;37.13;20.40;;;6.60;99.90;;;;;;5011286;28;20045;-44
2022/03/28 08:12:33;;;;;;;39.33;20.15;;;6.70;99.90;;;;;;5010054;28;20120;-46
2022/03/28 08:14:59;;;;;;;34.97;18.15;;;6.40;99.90;;;;;;5009995;28;20041;-45
2022/03/28 08:17:25;;;;;;;31.17;18.27;;;6.40;99.90;;;;;;5010382;28;20037;-47
2022/03/28 08:19:50;;;;;;;36.42;19.50;;;6.50;99.90;;;;;;5010701;28;20034;-45
2022/03/28 08:22:17;;;;;;;31.98;17.88;;;6.70;99.90;;;;;;5009453;28;20045;-46
2022/03/28 08:24:43;;;;;;;38.70;20.27;;;6.50;99.90;;;;;;5007593;28;20089;-48
2022/03/28 08:27:09;;;;;;;39.28;20.98;;;6.40;99.90;;;;;;5007822;28;20069;-46
2022/03/28 08:29:35;;;;;;;39.88;21.55;;;6.40;99.90;;;;;;5009429;28;20397;-47
2022/03/28 08:32:02;;;;;;;39.90;21.30;;;6.60;99.90;;;;;;5009309;28;20072;-45
2022/03/28 08:34:28;;;;;;;38.25;20.40;;;6.40;99.90;;;;;;5009507;28;20042;-47
2022/03/28 08:36:55;;;;;;;41.95;21.85;;;6.60;99.90;;;;;;5009751;28;20091;-45
2022/03/28 08:39:21;;;;;;;36.40;19.70;;;7.00;99.90;;;;;;5007165;28;20046;-46
2022/03/28 08:41:48;;;;;;;35.20;19.92;;;7.00;99.90;;;;;;5008832;28;20691;-46
2022/03/28 08:44:18;;;;;;;34.70;18.73;;;7.20;99.90;;;;;;5009815;28;20501;-46
2022/03/28 08:46:45;;;;;;;34.63;19.92;;;7.10;99.90;;;;;;5009923;28;20099;-48
2022/03/28 08:49:11;;;;;;;33.33;19.42;;;7.20;99.90;;;;;;4992475;28;20521;-51
2022/03/28 08:51:37;;;;;;;36.13;18.95;;;7.20;99.90;;;;;;5009134;28;20041;-49
2022/03/28 08:54:03;;;;;;;36.60;19.25;;;7.10;99.90;;;;;;5009801;28;20037;-52
2022/03/28 08:56:29;;;;;;;31.77;18.38;;;7.20;99.90;;;;;;5009824;28;20057;-49
2022/03/28 08:58:55;;;;;;;36.70;19.45;;;7.10;99.90;;;;;;5008765;28;20200;-48
2022/03/28 09:01:21;;;;;;;36.35;19.85;;;7.10;99.90;;;;;;5006661;28;20049;-49
2022/03/28 09:03:48;;;;;;;39.03;21.20;;;7.00;99.90;;;;;;5007046;28;20120;-50
2022/03/28 09:06:41;;;;;;;34.05;19.33;;;7.10;99.90;;;;;;4988649;28;20493;-49
2022/03/28 09:09:27;;;;;;;33.40;18.67;;;7.20;99.90;;;;;;4987700;28;20038;-50
2022/03/28 09:11:57;;;;;;;30.75;17.73;;;7.40;99.90;;;;;;5008767;28;20045;-47
2022/03/28 09:14:30;;;;;;;28.08;16.35;;;7.40;99.90;;;;;;5009645;28;20057;-46
2022/03/28 09:16:59;;;;;;;30.25;16.25;;;7.40;99.90;;;;;;5010178;28;20032;-50
2022/03/28 09:19:25;;;;;;;29.58;16.90;;;7.00;99.90;;;;;;5009382;28;20453;-50
2022/03/28 09:21:51;;;;;;;29.65;16.67;;;7.40;99.90;;;;;;5006614;28;20113;-49
2022/03/28 09:24:17;;;;;;;27.25;14.90;;;7.40;99.90;;;;;;4987958;28;20126;-49
2022/03/28 09:26:43;;;;;;;26.05;15.25;;;7.40;99.90;;;;;;5007940;28;20120;-46
2022/03/28 09:29:09;;;;;;;21.15;12.23;;;7.70;99.90;;;;;;5006354;28;20125;-46
2022/03/28 09:31:37;;;;;;;24.13;13.13;;;7.90;99.90;;;;;;5008991;28;20042;-49
2022/03/28 09:34:15;;;;;;;24.13;13.25;;;7.70;99.90;;;;;;5009330;28;20117;-47
2022/03/28 09:36:54;;;;;;;22.48;12.55;;;7.70;99.90;;;;;;5009441;28;20569;-50
2022/03/28 09:39:23;;;;;;;20.38;12.02;;;7.90;99.90;;;;;;5009217;28;20042;-49
2022/03/28 09:42:07;;;;;;;21.15;13.13;;;8.00;99.90;;;;;;5008037;28;20038;-48
2022/03/28 09:44:39;;;;;;;21.85;13.48;;;8.00;99.90;;;;;;5007924;28;20073;-48
2022/03/28 09:47:24;;;;;;;23.40;13.43;;;8.30;99.90;;;;;;5009160;28;20045;-51
2022/03/28 09:49:57;;;;;;;22.80;13.48;;;8.30;99.90;;;;;;4991038;28;20034;-50
2022/03/28 09:52:25;;;;;;;23.48;13.50;;;8.20;99.90;;;;;;5009040;28;20088;-50
2022/03/28 09:54:52;;;;;;;23.25;13.15;;;8.20;99.90;;;;;;5007794;28;20041;-49
2022/03/28 09:57:27;;;;;;;22.38;13.02;;;8.20;99.90;;;;;;5008963;28;20042;-47
2022/03/28 10:00:07;;;;;;;25.35;14.50;;;8.20;99.90;;;;;;5008708;28;20517;-48
2022/03/28 10:02:35;;;;;;;22.83;13.15;;;8.30;99.90;;;;;;5001647;28;20121;-45
2022/03/28 10:05:01;;;;;;;22.58;12.82;;;8.20;99.90;;;;;;5001316;28;20390;-51
2022/03/28 10:07:27;;;;;;;21.83;12.32;;;8.50;99.90;;;;;;5006691;28;20033;-48
2022/03/28 10:09:53;;;;;;;21.98;12.68;;;8.50;99.90;;;;;;5006768;28;20045;-45
2022/03/28 10:12:22;;;;;;;21.27;11.88;;;8.50;99.90;;;;;;5008431;28;20046;-46
2022/03/28 10:15:00;;;;;;;21.55;12.00;;;8.20;99.90;;;;;;5008190;28;20034;-48
2022/03/28 10:17:29;;;;;;;21.02;12.05;;;8.50;99.90;;;;;;5009412;28;20033;-46
2022/03/28 10:19:56;;;;;;;20.08;12.07;;;8.50;99.90;;;;;;5008968;28;20069;-47
2022/03/28 10:22:27;;;;;;;19.60;11.43;;;8.50;99.90;;;;;;5008571;28;20038;-49
2022/03/28 10:24:57;;;;;;;21.98;11.75;;;8.50;99.90;;;;;;5008425;28;20078;-46
2022/03/28 10:27:23;;;;;;;19.05;11.13;;;8.60;99.90;;;;;;5009295;28;20393;-46
2022/03/28 10:29:49;;;;;;;20.52;10.80;;;8.60;99.90;;;;;;5009627;28;20077;-50
2022/03/28 10:32:17;;;;;;;17.70;9.75;;;9.00;99.90;;;;;;5009600;28;20464;-48
2022/03/28 10:34:46;;;;;;;17.33;9.60;;;9.10;99.90;;;;;;5000546;28;20048;-52
2022/03/28 10:37:59;;;;;;;16.10;9.20;;;9.20;99.90;;;;;;5003148;28;20448;-49
2022/03/28 10:40:29;;;;;;;15.70;9.77;;;9.50;99.90;;;;;;5002989;28;20548;-45
2022/03/28 10:43:11;;;;;;;18.67;10.13;;;9.50;99.90;;;;;;5005832;28;20061;-47
2022/03/28 10:45:44;;;;;;;16.45;9.80;;;9.70;99.90;;;;;;5008651;28;20486;-45
2022/03/28 10:48:10;;;;;;;15.68;9.43;;;9.80;99.90;;;;;;5011415;28;20045;-49
2022/03/28 10:50:50;;;;;;;17.30;9.75;;;9.90;99.90;;;;;;5010461;28;20073;-49
2022/03/28 10:53:31;;;;;;;14.75;8.55;;;9.90;99.90;;;;;;5011060;28;20564;-48
2022/03/28 10:56:00;;;;;;;17.55;9.10;;;9.70;99.90;;;;;;5012057;28;20520;-49
2022/03/28 10:58:27;;;;;;;16.60;9.38;;;9.70;99.90;;;;;;5012396;28;20050;-48
2022/03/28 11:01:08;;;;;;;16.65;9.13;;;9.90;99.90;;;;;;5007259;28;20065;-49
2022/03/28 11:03:38;;;;;;;14.07;7.93;;;10.10;99.90;;;;;;5004722;28;20041;-48
2022/03/28 11:06:05;;;;;;;13.77;8.38;;;10.30;99.90;;;;;;5005076;28;20053;-47
2022/03/28 11:08:36;;;;;;;14.13;6.95;;;10.30;99.90;;;;;;5019545;28;20067;-52
2022/03/28 11:11:24;;;;;;;14.95;8.30;;;10.50;99.90;;;;;;5005970;28;20026;-47
2022/03/28 11:13:59;;;;;;;16.02;8.80;;;10.50;99.90;;;;;;5005213;28;20450;-45
2022/03/28 11:16:42;;;;;;;14.90;8.57;;;10.20;99.90;;;;;;5004755;28;20048;-47
2022/03/28 11:19:35;;;;;;;13.50;7.55;;;10.30;99.90;;;;;;5004775;28;20099;-47
2022/03/28 11:22:04;;;;;;;12.02;7.60;;;10.30;99.90;;;;;;4986049;28;20046;-48
2022/03/28 11:24:45;;;;;;;11.60;6.65;;;10.50;99.90;;;;;;5002778;28;20058;-48
2022/03/28 11:27:13;;;;;;;11.18;6.25;;;10.20;99.90;;;;;;5004041;28;20038;-49
2022/03/28 11:29:40;;;;;;;9.57;6.03;;;10.50;99.90;;;;;;5002553;28;20092;-47
2022/03/28 11:32:07;;;;;;;11.32;6.68;;;10.30;99.90;;;;;;5004735;28;20042;-49
2022/03/28 11:34:32;;;;;;;10.07;5.97;;;11.00;99.90;;;;;;4986712;28;20121;-50
2022/03/28 11:36:58;;;;;;;10.68;6.53;;;11.20;99.90;;;;;;5001115;28;20126;-46
2022/03/28 11:39:26;;;;;;;10.88;6.43;;;11.20;99.90;;;;;;5004437;28;20034;-46
2022/03/28 11:41:53;;;;;;;9.25;5.72;;;11.40;99.90;;;;;;5002176;28;20387;-49
2022/03/28 11:44:18;;;;;;;9.68;6.18;;;11.70;99.90;;;;;;5004846;28;20037;-48
2022/03/28 11:46:53;;;;;;;10.10;6.50;;;11.90;99.90;;;;;;5005075;28;20489;-48
2022/03/28 11:49:19;;;;;;;9.13;6.00;;;12.20;99.90;;;;;;5003308;28;20382;-50
2022/03/28 11:51:45;;;;;;;9.95;6.07;;;12.20;99.90;;;;;;4999630;28;20076;-50
2022/03/28 11:54:18;;;;;;;9.95;6.00;;;12.20;99.90;;;;;;5002986;28;20034;-47
2022/03/28 11:59:31;;;;;;;10.90;6.53;;;11.80;99.90;;;;;;5005164;28;20357;-51
2022/03/28 12:02:02;;;;;;;9.05;5.75;;;12.30;99.90;;;;;;5005074;28;20056;-48
2022/03/28 12:04:29;;;;;;;10.45;5.88;;;12.40;99.90;;;;;;5004724;28;20311;-45
2022/03/28 12:06:54;;;;;;;10.90;6.55;;;12.30;99.90;;;;;;5003672;28;20037;-47
2022/03/28 12:09:21;;;;;;;9.57;6.32;;;12.20;99.90;;;;;;5005361;28;20030;-47
2022/03/28 12:11:49;;;;;;;12.10;6.53;;;12.40;99.90;;;;;;5004541;28;20030;-47
2022/03/28 12:14:15;;;;;;;12.13;6.85;;;12.70;99.90;;;;;;5003175;28;20113;-52
2022/03/28 12:16:49;;;;;;;10.98;6.72;;;12.60;99.90;;;;;;5003123;28;20049;-46
2022/03/28 12:19:18;;;;;;;10.50;6.70;;;12.70;99.90;;;;;;5005123;28;20073;-51
2022/03/28 12:21:44;;;;;;;11.35;7.30;;;13.50;99.90;;;;;;5004178;28;20038;-48
2022/03/28 12:24:10;;;;;;;11.63;7.30;;;12.90;99.90;;;;;;5002448;28;20048;-47
2022/03/28 12:26:44;;;;;;;11.05;7.20;;;13.20;99.90;;;;;;4987173;28;20829;-48
2022/03/28 12:29:11;;;;;;;;;;;13.20;99.90;;;;;;5004786;28;20117;-48
2022/03/28 12:31:37;;;;;;;13.98;6.85;;;13.60;99.90;;;;;;5004480;28;19918;-49
2022/03/28 12:34:03;;;;;;;9.52;6.63;;;13.60;99.90;;;;;;4984829;28;20096;-49
2022/03/28 12:36:30;;;;;;;10.82;7.10;;;13.90;99.90;;;;;;5004604;28;20038;-49
2022/03/28 12:38:59;;;;;;;12.00;6.82;;;13.60;99.90;;;;;;5004626;28;20109;-48
2022/03/28 12:41:28;;;;;;;9.93;6.82;;;13.90;99.90;;;;;;5003753;28;20056;-49
2022/03/28 12:43:55;;;;;;;10.57;6.47;;;13.80;99.90;;;;;;4986230;28;20500;-48
2022/03/28 12:46:22;;;;;;;10.38;6.70;;;13.90;99.90;;;;;;5003302;28;20519;-48
2022/03/28 12:48:53;;;;;;;12.23;7.18;;;14.60;99.90;;;;;;5001086;28;20049;-49